aviador You're here:

KQDG Decoded Metar

ADANA/INCIRLIK in USA-MIL
Report Time2017-07-22 22:26:00
UTC Time2017-07-22 22:39:16
Flight Rules lifr LIFR
Wind010° at 04 kt
W.Rank010° ranks 35
Current wind is above 010° avg. (3.9)
Visibility3000 m
Phenomena:N/A
Clouds:Broken 002 Hf
Broken 039 Hf
Ceiling200 ft
Temp20°C (ISA +5)
Dew Point20°C (100% RH)
QNH1006 hPa
Density Alt1,427 ft
Elevation240 ft
Report Wrong Elevation
Raw Report
SPECI KQDG 222226Z AUTO 01004KT 3000 M BKN002 BKN039 20/20 A2970 RMK
AO2 VIS 3000V4000 CIG 002V004 BKN V SCT SLP059 PWINO $=

Extra information for KQDG:More info

Metar Taf Metar & Taf Last 4 Metars F.Rules Stats Wind Profile Meteogram Temp Stats Airport Information Weather charts Add Link Nearby VenuesMetar ALERT Operation Metar Decoded Social comments